nws-alerts: Checking more than four warning/county codes can delay the loading of your pages. You should use a cron job to get the data.

Nearby METAR Reports

 

KOXC - Oxford/Waterbury, Connecticut, USA
Distance from station: NW 7mi, 11km
Updated: 01/24/2020 8:51pm
Clear
Clear
 Wind from E
Wind: E 9 mph , 15 km/h
Temperature: 37°F , 3°C
Wind Chill: 30°F , -1°C
Dew Point: 21°F , -6°C
Humidity: 52%
Barometer: 30.32 inHg , 1026.8 hPa
Clouds: Clear
Visibility: 10 miles , 16 km
2020/01/25 01:51 KOXC 250151Z 08008KT 10SM CLR 03/M06 A3032 RMK AO2 SLP286 T00281056
KHVN - New Haven/Tweed, Connecticut, USA
Distance from station: SE 13mi, 20km
Updated: 01/24/2020 8:53pm
Clear
Clear
 Wind from ENE
Wind: ENE 5 mph , 7 km/h
Temperature: 36°F , 2°C
Wind Chill: 32°F , 0°C
Dew Point: 28°F , -2°C
Humidity: 75%
Barometer: 30.35 inHg , 1027.8 hPa
Clouds: Clear
Visibility: 10 miles , 16 km
2020/01/25 01:53 KHVN 250153Z 06004KT 10SM CLR 02/M02 A3035 RMK AO2 SLP275 T00221022
 
KMMK - Meriden, Connecticut, USA
Distance from station: NE 13mi, 21km
Updated: 01/24/2020 8:53pm
Clear
Clear
 Wind from NW
Wind: NW 3 mph , 6 km/h
Temperature: 30°F , -1°C
Dew Point: 23°F , -5°C
Humidity: 75%
Barometer: 30.36 inHg , 1028.1 hPa
Clouds: Clear
Visibility: 10 miles , 16 km
2020/01/25 01:53 KMMK 250153Z AUTO 32003KT 10SM CLR M01/M05 A3036 RMK AO2 SLP281 T10111050
KBDR - Bridgeport, Connecticut, USA
Distance from station: SSW 17mi, 27km
Updated: 01/24/2020 8:52pm
Clear
Clear
 Wind from ENE
Wind: ENE 13 mph , 20 km/h
Temperature: 39°F , 4°C
Wind Chill: 31°F , -1°C
Dew Point: 30°F , -1°C
Humidity: 70%
Barometer: 30.34 inHg , 1027.4 hPa
Clouds: Clear
Visibility: 10 miles , 16 km
2020/01/25 01:52 KBDR 250152Z 07011KT 10SM CLR 04/M01 A3034 RMK AO2 SLP273 T00441006
 
KDXR - Danbury, Connecticut, USA
Distance from station: W 23mi, 38km
Updated: 01/24/2020 8:53pm
Clear
Clear
 Wind from ESE
Wind: ESE 6 mph , 9 km/h
Temperature: 37°F , 3°C
Wind Chill: 32°F , 0°C
Dew Point: 25°F , -4°C
Humidity: 60%
Barometer: 30.32 inHg , 1026.8 hPa
Clouds: Clear
Visibility: 10 miles , 16 km
2020/01/25 01:53 KDXR 250153Z 11005KT 10SM CLR 03/M04 A3032 RMK AO2 SLP273 T00281039